Time;durP1;ratioP1;P1;durP2;ratioP2;P2;SDS_P1;SDS_P2;PMS_P1;PMS_P2;Temp;Humidity;BMP_temperature;BMP_pressure;BME280_temperature;BME280_humidity;BME280_pressure;Samples;Min_cycle;Max_cycle;Signal;HPM_P1;HPM_P2
2022/04/13 00:00:56;;;;;;;0.57;0.57;;;14.90;99.90;15.10;101045.00;;;;5114626;28;20171;-75
2022/04/13 00:03:24;;;;;;;1.60;1.33;;;15.00;99.90;15.40;101048.00;;;;5115115;28;20278;-75
2022/04/13 00:05:56;;;;;;;0.60;0.60;;;15.20;99.90;15.50;101043.00;;;;5098278;28;20220;-73
2022/04/13 00:08:25;;;;;;;0.50;0.50;;;15.30;99.90;15.30;101035.00;;;;5115425;28;20177;-73
2022/04/13 00:10:50;;;;;;;0.50;0.50;;;15.40;99.90;15.10;101045.00;;;;5114591;28;20176;-74
2022/04/13 00:13:16;;;;;;;0.50;0.50;;;15.20;99.90;15.50;101047.00;;;;5116045;28;20185;-74
2022/04/13 00:15:48;;;;;;;1.10;1.10;;;15.30;99.90;15.40;101045.00;;;;5110253;28;20205;-74
2022/04/13 00:18:19;;;;;;;0.70;0.70;;;15.40;99.90;15.50;101051.00;;;;5094257;28;20180;-74
2022/04/13 00:20:46;;;;;;;1.40;1.30;;;15.40;99.90;15.40;101040.00;;;;5094225;28;20186;-74
2022/04/13 00:23:12;;;;;;;0.50;0.50;;;15.50;99.90;15.50;101052.00;;;;5093888;28;20226;-74
2022/04/13 00:25:39;;;;;;;0.50;0.50;;;15.50;99.90;15.10;101027.00;;;;5111025;28;20630;-74
2022/04/13 00:28:10;;;;;;;0.50;0.50;;;15.50;99.90;15.20;101013.00;;;;5095236;28;20185;-74
2022/04/13 00:30:37;;;;;;;0.50;0.50;;;15.30;99.90;15.10;101046.00;;;;5110520;28;20202;-74
2022/04/13 00:33:08;;;;;;;0.60;0.60;;;15.20;99.90;15.50;101052.00;;;;5110424;28;20712;-74
2022/04/13 00:35:35;;;;;;;0.50;0.50;;;15.30;99.90;15.50;101044.00;;;;5093597;28;20178;-74
2022/04/13 00:38:05;;;;;;;0.60;0.60;;;15.30;99.90;15.60;101066.00;;;;5110906;28;20634;-75
2022/04/13 00:40:31;;;;;;;0.50;0.50;;;15.40;99.90;15.50;101061.00;;;;5093699;28;20181;-75
2022/04/13 00:42:59;;;;;;;1.17;1.17;;;15.50;99.90;15.50;101013.00;;;;5094538;28;20549;-75
2022/04/13 00:45:33;;;;;;;0.80;0.80;;;15.50;99.90;15.40;101017.00;;;;5110287;28;20177;-74
2022/04/13 00:48:06;;;;;;;0.50;0.50;;;15.30;99.90;14.70;101050.00;;;;5093094;28;20259;-74
2022/04/13 00:50:35;;;;;;;0.60;0.60;;;15.20;99.90;15.30;101056.00;;;;5110814;28;20238;-74
2022/04/13 00:53:09;;;;;;;1.00;1.00;;;15.20;99.90;15.20;101048.00;;;;5093029;28;20208;-74
2022/04/13 00:55:42;;;;;;;1.63;1.53;;;15.20;99.90;15.30;101011.00;;;;5091628;28;20183;-73
2022/04/13 00:58:17;;;;;;;1.13;1.13;;;15.20;99.90;15.10;101063.00;;;;5110093;28;20244;-74
2022/04/13 01:00:48;;;;;;;0.90;0.90;;;15.10;99.90;14.30;101049.00;;;;5110319;28;20703;-74
2022/04/13 01:03:24;;;;;;;0.50;0.50;;;14.80;99.90;14.30;101032.00;;;;5092143;28;20188;-74
2022/04/13 01:05:56;;;;;;;0.50;0.50;;;14.70;99.90;14.80;101065.00;;;;5108988;28;20216;-74
2022/04/13 01:08:25;;;;;;;0.50;0.50;;;14.70;99.90;15.30;101060.00;;;;5110382;28;20188;-77
2022/04/13 01:10:54;;;;;;;0.90;0.90;;;15.00;99.90;15.10;101070.00;;;;5109927;28;20190;-76
2022/04/13 01:13:23;;;;;;;0.60;0.60;;;15.10;99.90;14.90;101067.00;;;;5092425;28;20272;-76
2022/04/13 01:15:55;;;;;;;1.20;1.20;;;14.90;99.90;15.30;101069.00;;;;5109674;28;20174;-75
2022/04/13 01:18:20;;;;;;;0.50;0.50;;;15.10;99.90;14.90;101066.00;;;;5093295;28;20191;-76
2022/04/13 01:20:53;;;;;;;1.17;1.17;;;15.00;99.90;14.90;101080.00;;;;5094814;28;20167;-76
2022/04/13 01:23:23;;;;;;;0.60;0.60;;;15.00;99.90;14.90;101051.00;;;;5110064;28;20577;-76
2022/04/13 01:25:55;;;;;;;0.50;0.50;;;15.00;99.90;14.90;101086.00;;;;5092524;28;20281;-76
2022/04/13 01:28:23;;;;;;;1.00;1.00;;;14.80;99.90;15.20;101091.00;;;;5109843;28;20187;-75
2022/04/13 01:30:49;;;;;;;0.60;0.60;;;15.00;99.90;15.10;101085.00;;;;5091519;28;20222;-75
2022/04/13 01:33:18;;;;;;;0.97;0.97;;;15.00;99.90;15.50;101090.00;;;;5091348;28;20655;-75
2022/04/13 01:35:52;;;;;;;0.60;0.60;;;15.20;99.90;15.20;101080.00;;;;5109346;28;20200;-75
2022/04/13 01:38:17;;;;;;;0.60;0.60;;;15.20;99.90;15.10;101077.00;;;;5109613;28;20201;-75
2022/04/13 01:40:48;;;;;;;0.60;0.60;;;15.10;99.90;15.20;101052.00;;;;5110099;28;20212;-75
2022/04/13 01:43:24;;;;;;;0.60;0.60;;;15.00;99.90;15.20;101053.00;;;;5093472;28;20236;-75
2022/04/13 01:45:51;;;;;;;0.60;0.60;;;15.10;99.90;14.40;101111.00;;;;5109513;28;20538;-76
2022/04/13 01:48:22;;;;;;;0.60;0.60;;;14.80;99.90;14.80;101105.00;;;;5091807;28;20542;-75
2022/04/13 01:50:51;;;;;;;0.60;0.60;;;14.70;99.90;14.50;101115.00;;;;5108191;28;20265;-75
2022/04/13 01:53:22;;;;;;;0.50;0.50;;;14.60;99.90;14.70;101096.00;;;;5073542;28;20674;-76
2022/04/13 01:55:51;;;;;;;0.60;0.60;;;14.60;99.90;15.00;101095.00;;;;5109395;28;20177;-76
2022/04/13 01:58:27;;;;;;;0.60;0.60;;;14.70;99.90;14.80;101114.00;;;;5109668;28;20169;-76
2022/04/13 02:00:56;;;;;;;0.60;0.60;;;14.70;99.90;14.70;101107.00;;;;5091168;28;20177;-73
2022/04/13 02:03:26;;;;;;;0.53;0.53;;;14.60;99.90;14.70;101118.00;;;;5093154;28;20185;-76
2022/04/13 02:05:57;;;;;;;0.60;0.60;;;14.60;99.90;14.70;101117.00;;;;5090597;28;20185;-75
2022/04/13 02:08:28;;;;;;;0.57;0.57;;;14.60;99.90;15.00;101113.00;;;;5092859;28;20262;-75
2022/04/13 02:10:59;;;;;;;0.60;0.60;;;14.70;99.90;15.00;101105.00;;;;5091445;28;20183;-75
2022/04/13 02:13:34;;;;;;;0.60;0.60;;;14.80;99.90;15.10;101115.00;;;;5108520;28;20643;-74
2022/04/13 02:16:08;;;;;;;0.60;0.60;;;14.90;99.90;15.20;101109.00;;;;5073325;28;20635;-75
2022/04/13 02:18:42;;;;;;;0.60;0.60;;;15.00;99.90;15.10;101077.00;;;;5107801;28;20193;-75
2022/04/13 02:21:08;;;;;;;0.60;0.60;;;14.90;99.90;14.90;101115.00;;;;5108629;28;20638;-75
2022/04/13 02:23:39;;;;;;;0.50;0.50;;;14.80;99.90;14.80;101125.00;;;;5092786;28;20175;-75
2022/04/13 02:26:13;;;;;;;0.70;0.70;;;14.80;99.90;14.70;101055.00;;;;5108172;28;20183;-75
2022/04/13 02:28:44;;;;;;;0.60;0.60;;;14.70;99.90;14.90;101129.00;;;;5093215;28;20169;-75
2022/04/13 02:31:10;;;;;;;0.60;0.60;;;14.70;99.90;15.00;101134.00;;;;5108565;28;20189;-75
2022/04/13 02:33:47;;;;;;;0.70;0.70;;;14.80;99.90;15.30;101123.00;;;;5091957;28;20621;-74
2022/04/13 02:36:21;;;;;;;0.60;0.60;;;15.10;99.90;15.00;101117.00;;;;5108496;28;20176;-75
2022/04/13 02:38:50;;;;;;;0.70;0.70;;;14.90;99.90;14.90;101109.00;;;;5108357;28;20202;-75
2022/04/13 02:41:25;;;;;;;0.70;0.70;;;14.80;99.90;14.60;101114.00;;;;5091923;28;20237;-75
2022/04/13 02:43:55;;;;;;;1.63;1.63;;;14.70;99.90;14.90;101125.00;;;;5091618;28;20176;-75
2022/04/13 02:46:24;;;;;;;0.60;0.60;;;14.70;99.90;14.90;101078.00;;;;5104950;28;20283;-75
2022/04/13 02:48:52;;;;;;;0.60;0.60;;;14.80;99.90;14.60;101113.00;;;;5074671;28;20710;-75
2022/04/13 02:51:21;;;;;;;0.60;0.60;;;14.70;99.90;14.30;101077.00;;;;5072933;28;20240;-76
2022/04/13 02:53:52;;;;;;;0.80;0.80;;;14.50;99.90;13.90;101103.00;;;;5090061;28;20262;-75
2022/04/13 02:56:20;;;;;;;0.50;0.50;;;14.30;99.90;13.90;101125.00;;;;5075008;28;20195;-75
2022/04/13 02:58:51;;;;;;;0.60;0.60;;;14.10;99.90;14.50;101125.00;;;;5075517;28;20176;-76
2022/04/13 03:01:20;;;;;;;0.60;0.60;;;14.30;99.90;14.80;101130.00;;;;5091834;28;20196;-76
2022/04/13 03:03:49;;;;;;;0.60;0.60;;;14.60;99.90;14.70;101133.00;;;;5092605;28;20185;-76
2022/04/13 03:06:20;;;;;;;0.60;0.60;;;14.60;99.90;14.70;101110.00;;;;5074197;28;20178;-77
2022/04/13 03:08:54;;;;;;;0.60;0.60;;;14.70;99.90;14.80;101135.00;;;;5090357;28;20178;-76
2022/04/13 03:11:22;;;;;;;0.50;0.50;;;14.80;99.90;14.40;101091.00;;;;5091091;28;20309;-76
2022/04/13 03:13:51;;;;;;;0.93;0.93;;;14.60;99.90;15.00;101134.00;;;;5092275;28;20176;-76
2022/04/13 03:16:19;;;;;;;0.60;0.60;;;14.70;99.90;14.90;101146.00;;;;5091540;28;20194;-76
2022/04/13 03:18:48;;;;;;;0.50;0.50;;;14.80;99.90;15.00;101102.00;;;;5091525;28;20672;-75
2022/04/13 03:21:22;;;;;;;0.50;0.50;;;14.90;99.90;14.90;101125.00;;;;5077940;28;20544;-75
2022/04/13 03:23:56;;;;;;;0.50;0.50;;;14.90;99.90;14.70;101124.00;;;;5111673;28;20218;-76
2022/04/13 03:26:27;;;;;;;0.50;0.50;;;14.80;99.90;14.30;101131.00;;;;5114765;28;20203;-76
2022/04/13 03:28:58;;;;;;;0.50;0.50;;;14.60;99.90;14.30;101140.00;;;;5115984;28;20191;-76
2022/04/13 03:31:28;;;;;;;0.50;0.50;;;14.40;99.90;14.10;101079.00;;;;5097900;28;20200;-75
2022/04/13 03:33:57;;;;;;;0.50;0.50;;;14.40;99.90;14.20;101135.00;;;;5115364;28;20184;-75
2022/04/13 03:36:25;;;;;;;0.50;0.50;;;14.20;99.90;14.00;101132.00;;;;5115492;28;20175;-76
2022/04/13 03:38:56;;;;;;;0.50;0.50;;;14.20;99.90;14.80;101131.00;;;;5097691;28;20176;-76
2022/04/13 03:41:27;;;;;;;0.50;0.50;;;14.40;99.90;14.70;101135.00;;;;5115426;28;20176;-76
2022/04/13 03:43:53;;;;;;;0.50;0.50;;;14.50;99.90;14.60;101145.00;;;;5098571;28;20187;-76
2022/04/13 03:46:24;;;;;;;0.60;0.60;;;14.50;99.90;14.50;101147.00;;;;5113959;28;20181;-75
2022/04/13 03:48:53;;;;;;;0.60;0.60;;;14.40;99.90;14.20;101153.00;;;;5113955;28;20182;-75
2022/04/13 03:51:22;;;;;;;1.00;1.00;;;14.30;99.90;14.30;101151.00;;;;5098227;28;20218;-75
2022/04/13 03:53:53;;;;;;;0.50;0.50;;;14.20;99.90;14.20;101143.00;;;;5097957;28;20176;-75
2022/04/13 03:56:28;;;;;;;0.60;0.60;;;14.10;99.90;14.00;101149.00;;;;5115127;28;20187;-75
2022/04/13 03:59:01;;;;;;;0.60;0.60;;;14.00;99.90;13.90;101113.00;;;;5114936;28;20231;-77
2022/04/13 04:01:32;;;;;;;0.50;0.50;;;13.90;99.90;14.30;101160.00;;;;5098228;28;20201;-76
2022/04/13 04:04:10;;;;;;;0.50;0.50;;;14.00;99.90;14.30;101167.00;;;;5097646;28;20225;-76
2022/04/13 04:06:42;;;;;;;0.50;0.50;;;14.20;99.90;14.00;101167.00;;;;5116125;28;20177;-76
2022/04/13 04:09:19;;;;;;;0.60;0.60;;;14.10;99.90;13.50;101157.00;;;;5097917;28;20202;-76
2022/04/13 04:11:48;;;;;;;0.50;0.50;;;13.80;99.90;13.20;101134.00;;;;5114975;28;20556;-76
2022/04/13 04:14:14;;;;;;;0.60;0.60;;;13.50;99.90;13.50;101170.00;;;;5097965;28;20588;-75
2022/04/13 04:16:45;;;;;;;0.60;0.60;;;13.50;99.90;13.30;101173.00;;;;5109331;28;20178;-77
2022/04/13 04:19:14;;;;;;;0.50;0.50;;;13.40;99.90;13.40;101164.00;;;;5077313;28;20230;-76
2022/04/13 04:21:43;;;;;;;0.60;0.60;;;13.40;99.90;13.60;101168.00;;;;5095811;28;20186;-76
2022/04/13 04:24:19;;;;;;;0.50;0.50;;;13.40;99.90;13.20;101163.00;;;;5076798;28;20179;-76
2022/04/13 04:26:47;;;;;;;0.60;0.60;;;13.40;99.90;13.40;101176.00;;;;5093956;28;20159;-76
2022/04/13 04:29:18;;;;;;;0.50;0.50;;;13.40;99.90;13.30;101171.00;;;;5077181;28;20387;-76
2022/04/13 04:31:50;;;;;;;0.60;0.60;;;13.30;99.90;13.00;101187.00;;;;5076644;28;20218;-75
2022/04/13 04:34:25;;;;;;;0.50;0.50;;;13.20;99.90;13.40;101189.00;;;;5094228;28;20186;-76
2022/04/13 04:36:54;;;;;;;0.50;0.50;;;13.30;99.90;13.50;101179.00;;;;5094099;28;20177;-76
2022/04/13 04:39:23;;;;;;;0.60;0.60;;;13.50;99.90;13.40;101140.00;;;;5076886;28;20188;-76
2022/04/13 04:41:48;;;;;;;0.60;0.60;;;13.40;99.90;13.50;101177.00;;;;5093454;28;20175;-76
2022/04/13 04:44:19;;;;;;;0.50;0.50;;;13.40;99.90;13.00;101183.00;;;;5094648;28;20183;-76
2022/04/13 04:46:53;;;;;;;1.00;1.00;;;13.30;99.90;12.90;101181.00;;;;5093527;28;20628;-76
2022/04/13 04:49:22;;;;;;;0.60;0.60;;;13.10;99.90;12.90;101196.00;;;;5093879;28;20230;-77
2022/04/13 04:51:53;;;;;;;0.57;0.57;;;13.00;99.90;13.10;101201.00;;;;5076505;28;20198;-76
2022/04/13 04:54:21;;;;;;;0.50;0.50;;;13.00;99.90;12.80;101202.00;;;;5093718;28;20174;-76
2022/04/13 04:56:50;;;;;;;0.60;0.60;;;12.90;99.90;12.80;101195.00;;;;5093338;28;20187;-75
2022/04/13 04:59:19;;;;;;;0.80;0.80;;;12.80;99.90;13.30;101207.00;;;;5093611;28;20549;-75
2022/04/13 05:01:50;;;;;;;0.60;0.60;;;13.00;99.90;13.10;101183.00;;;;5108229;28;20645;-75
2022/04/13 05:04:18;;;;;;;0.60;0.60;;;13.10;99.90;12.60;101207.00;;;;5113855;28;20182;-75
2022/04/13 05:06:53;;;;;;;0.60;0.60;;;12.90;99.90;12.70;101214.00;;;;5113554;28;20173;-76
2022/04/13 05:09:20;;;;;;;0.60;0.60;;;12.80;99.90;12.80;101171.00;;;;5097199;28;20530;-75
2022/04/13 05:11:52;;;;;;;0.60;0.60;;;12.80;99.90;12.90;101181.00;;;;5115023;28;20696;-75
2022/04/13 05:14:25;;;;;;;1.13;1.13;;;12.80;99.90;13.30;101227.00;;;;5113080;28;20242;-75
2022/04/13 05:16:53;;;;;;;0.77;0.77;;;13.00;99.90;13.40;101220.00;;;;5109445;28;20653;-76
2022/04/13 05:19:20;;;;;;;0.50;0.50;;;13.20;99.90;13.30;101231.00;;;;5092156;28;20701;-74
2022/04/13 05:21:46;;;;;;;0.80;0.80;;;13.20;99.90;13.80;101190.00;;;;5092488;28;20194;-75
2022/04/13 05:24:15;;;;;;;0.70;0.70;;;13.50;99.90;13.50;101239.00;;;;5094195;28;20173;-74
2022/04/13 05:26:49;;;;;;;0.70;0.70;;;13.50;99.90;13.70;101206.00;;;;5076207;28;20191;-75
2022/04/13 05:29:24;;;;;;;0.60;0.60;;;13.60;99.90;13.60;101257.00;;;;5092380;28;20174;-75
2022/04/13 05:31:49;;;;;;;0.70;0.70;;;13.60;99.90;14.00;101234.00;;;;5110215;28;20263;-75
2022/04/13 05:34:15;;;;;;;0.70;0.70;;;13.80;99.90;14.00;101249.00;;;;5095337;28;20180;-75
2022/04/13 05:36:43;;;;;;;0.70;0.70;;;13.90;99.90;14.00;101254.00;;;;5114567;28;20583;-74
2022/04/13 05:39:12;;;;;;;0.70;0.70;;;13.90;99.90;14.40;101267.00;;;;5113154;28;20182;-74
2022/04/13 05:41:46;;;;;;;0.93;0.93;;;14.10;99.90;14.90;101270.00;;;;5095430;28;20530;-76
2022/04/13 05:44:14;;;;;;;0.70;0.70;;;14.50;99.90;14.80;101261.00;;;;5113106;28;20652;-75
2022/04/13 05:46:43;;;;;;;0.60;0.60;;;14.70;99.90;15.00;101250.00;;;;5113363;28;20236;-75
2022/04/13 05:49:11;;;;;;;0.60;0.60;;;14.90;99.90;15.00;101265.00;;;;5074981;28;20180;-76
2022/04/13 05:51:43;;;;;;;0.50;0.50;;;14.90;99.90;14.50;101262.00;;;;5093846;28;20290;-76
2022/04/13 05:54:13;;;;;;;2.97;2.87;;;14.60;99.90;14.60;101234.00;;;;5092692;28;20203;-75
2022/04/13 05:56:42;;;;;;;0.50;0.50;;;14.70;99.90;15.60;101264.00;;;;5075327;28;20192;-76
2022/04/13 05:59:16;;;;;;;0.50;0.50;;;15.20;99.90;16.50;101249.00;;;;5074453;28;20216;-75
2022/04/13 06:01:47;;;;;;;0.47;0.47;;;15.80;99.90;16.00;101277.00;;;;5095824;28;20187;-75
2022/04/13 06:04:22;;;;;;;0.40;0.40;;;16.10;99.90;16.90;101282.00;;;;5112021;28;20230;-76
2022/04/13 06:06:51;;;;;;;0.40;0.40;;;16.50;99.90;16.80;101287.00;;;;5112206;28;20266;-77
2022/04/13 06:09:22;;;;;;;0.40;0.40;;;16.70;99.90;17.00;101299.00;;;;5112427;28;20214;-75
2022/04/13 06:11:51;;;;;;;0.40;0.40;;;16.90;99.90;16.50;101305.00;;;;5112921;28;20287;-76
2022/04/13 06:14:20;;;;;;;0.40;0.40;;;16.70;99.90;16.30;101285.00;;;;5095014;28;20181;-76
2022/04/13 06:16:51;;;;;;;0.40;0.40;;;16.40;99.90;16.00;101297.00;;;;5094009;28;20210;-75
2022/04/13 06:19:20;;;;;;;0.50;0.50;;;16.30;99.90;15.80;101292.00;;;;5091882;28;20188;-76
2022/04/13 06:21:51;;;;;;;0.43;0.43;;;16.00;99.90;15.70;101307.00;;;;5073623;28;20185;-76
2022/04/13 06:24:23;;;;;;;0.60;0.60;;;15.70;99.90;15.50;101315.00;;;;5091584;28;20211;-75
2022/04/13 06:26:48;;;;;;;0.60;0.60;;;15.80;99.90;15.70;101319.00;;;;5091952;28;20262;-75
2022/04/13 06:29:17;;;;;;;0.60;0.60;;;15.70;99.90;15.30;101308.00;;;;5091634;28;20649;-77
2022/04/13 06:31:43;;;;;;;0.60;0.60;;;15.40;99.90;15.70;101318.00;;;;5091427;28;20721;-76
2022/04/13 06:34:11;;;;;;;0.60;0.60;;;15.50;99.90;15.50;101320.00;;;;5093202;28;20207;-76
2022/04/13 06:36:37;;;;;;;0.50;0.50;;;15.50;99.90;16.00;101315.00;;;;5091754;28;20234;-76
2022/04/13 06:39:06;;;;;;;4.33;1.63;;;15.70;99.90;15.90;101336.00;;;;5091864;28;20794;-74
2022/04/13 06:41:37;;;;;;;0.40;0.40;;;16.00;99.90;13.70;101293.00;;;;5092130;28;20185;-73
2022/04/13 06:44:03;;;;;;;0.60;0.60;;;14.80;99.90;14.30;101333.00;;;;5101002;28;20767;-74
2022/04/13 06:46:36;;;;;;;5.37;2.30;;;14.60;99.90;14.70;101343.00;;;;5092406;28;20190;-74
2022/04/13 06:49:06;;;;;;;0.60;0.60;;;14.70;99.90;14.60;101338.00;;;;5110822;28;20183;-74
2022/04/13 06:51:34;;;;;;;0.40;0.40;;;14.80;99.90;14.40;101352.00;;;;5112505;28;20276;-74
2022/04/13 06:54:00;;;;;;;1.57;1.47;;;14.60;99.90;14.10;101370.00;;;;5094995;28;20185;-75
2022/04/13 06:56:26;;;;;;;1.70;1.60;;;14.50;99.90;14.80;101374.00;;;;5116292;28;20527;-75
2022/04/13 06:58:52;;;;;;;0.50;0.50;;;14.80;99.90;14.00;101378.00;;;;5111185;28;20234;-75
2022/04/13 07:01:19;;;;;;;0.50;0.50;;;14.70;99.90;14.30;101374.00;;;;5108524;28;20568;-75
2022/04/13 07:03:45;;;;;;;1.00;1.00;;;14.70;99.90;14.50;101383.00;;;;5099232;28;20219;-75
2022/04/13 07:06:10;;;;;;;3.30;1.70;;;14.60;99.90;14.50;101389.00;;;;5116242;28;20201;-75
2022/04/13 07:08:42;;;;;;;0.73;0.73;;;14.70;99.90;14.60;101344.00;;;;5099386;28;20523;-74
2022/04/13 07:11:16;;;;;;;0.40;0.40;;;14.80;99.90;14.40;101396.00;;;;5116138;28;20208;-73
2022/04/13 07:13:47;;;;;;;0.60;0.60;;;14.80;99.90;14.20;101392.00;;;;5116181;28;20182;-75
2022/04/13 07:16:19;;;;;;;0.40;0.40;;;14.70;99.90;14.10;101392.00;;;;5116177;28;20191;-75
2022/04/13 07:18:50;;;;;;;0.50;0.50;;;14.60;99.90;14.30;101366.00;;;;5115064;28;20235;-75
2022/04/13 07:21:22;;;;;;;0.60;0.60;;;14.60;99.90;15.20;101385.00;;;;5115791;28;20174;-75
2022/04/13 07:23:51;;;;;;;0.50;0.50;;;15.10;99.90;15.70;101386.00;;;;5098250;28;20195;-75
2022/04/13 07:26:22;;;;;;;0.60;0.60;;;15.40;99.90;16.30;101383.00;;;;5111124;28;20569;-75
2022/04/13 07:28:54;;;;;;;0.60;0.60;;;15.80;99.90;16.30;101335.00;;;;5091295;28;20468;-74
2022/04/13 07:31:20;;;;;;;0.80;0.80;;;16.20;99.90;16.70;101399.00;;;;5093225;28;20190;-75
2022/04/13 07:33:55;;;;;;;0.50;0.50;;;16.50;99.90;16.40;101391.00;;;;5078629;28;20233;-75
2022/04/13 07:36:31;;;;;;;0.60;0.60;;;16.50;99.90;16.70;101394.00;;;;5112758;28;20552;-76
2022/04/13 07:39:12;;;;;;;0.60;0.60;;;16.60;99.90;17.00;101397.00;;;;5115795;28;20183;-69
2022/04/13 07:41:44;;;;;;;0.50;0.50;;;16.80;99.90;17.10;101413.00;;;;5099796;28;20198;-80
2022/04/13 07:44:16;;;;;;;0.80;0.80;;;17.00;99.90;17.10;101408.00;;;;5115575;28;20181;-78
2022/04/13 07:46:47;;;;;;;0.50;0.50;;;17.00;99.90;17.10;101396.00;;;;5098234;28;20236;-79
2022/04/13 07:49:21;;;;;;;0.60;0.60;;;17.10;99.90;17.50;101419.00;;;;5082225;28;20603;-78
2022/04/13 07:51:47;;;;;;;0.70;0.70;;;17.30;99.90;17.20;101410.00;;;;5094771;28;20732;-82
2022/04/13 07:54:18;;;;;;;1.67;1.67;;;17.40;99.90;17.20;101420.00;;;;5094766;28;20325;-79
2022/04/13 07:56:49;;;;;;;0.67;0.67;;;17.20;99.90;17.00;101401.00;;;;5078378;28;20639;-79
2022/04/13 07:59:18;;;;;;;0.80;0.80;;;17.00;99.90;16.90;101429.00;;;;5082145;28;20178;-79
2022/04/13 08:01:49;;;;;;;0.50;0.50;;;17.10;99.90;16.80;101425.00;;;;5077045;28;20709;-81
2022/04/13 08:04:24;;;;;;;0.53;0.53;;;16.90;99.90;17.20;101429.00;;;;5073674;28;20207;-80
2022/04/13 08:06:50;;;;;;;1.03;1.03;;;17.10;99.90;17.20;101392.00;;;;5094579;28;20216;-81
2022/04/13 08:09:16;;;;;;;1.37;1.00;;;17.20;99.90;17.30;101439.00;;;;5093538;28;20173;-80
2022/04/13 08:11:41;;;;;;;0.60;0.60;;;17.40;99.90;17.50;101435.00;;;;5094243;28;20236;-79
2022/04/13 08:14:08;;;;;;;1.47;1.43;;;17.50;99.90;16.90;101429.00;;;;5077796;28;20238;-66
2022/04/13 08:16:39;;;;;;;0.53;0.53;;;17.20;99.90;17.20;101431.00;;;;5095326;28;20196;-79
2022/04/13 08:19:10;;;;;;;1.43;1.33;;;17.30;99.90;17.30;101443.00;;;;5087433;28;20264;-79
2022/04/13 08:21:43;;;;;;;0.50;0.50;;;17.20;99.90;17.10;101437.00;;;;5094193;28;20188;-78
2022/04/13 08:24:20;;;;;;;0.60;0.60;;;17.10;99.90;17.10;101448.00;;;;5094016;28;20205;-79
2022/04/13 08:26:51;;;;;;;0.57;0.57;;;17.00;99.90;17.30;101460.00;;;;5094390;28;20192;-80
2022/04/13 08:29:24;;;;;;;0.50;0.50;;;17.20;99.90;17.40;101467.00;;;;5095642;28;20181;-79
2022/04/13 08:32:00;;;;;;;1.57;1.57;;;17.30;99.90;17.60;101470.00;;;;5093943;28;20228;-79
2022/04/13 08:34:32;;;;;;;0.50;0.50;;;17.40;99.90;17.70;101484.00;;;;5103014;28;20657;-81
2022/04/13 08:37:00;;;;;;;0.50;0.50;;;17.50;99.90;17.40;101418.00;;;;5102869;28;20190;-81
2022/04/13 08:39:31;;;;;;;1.47;1.47;;;17.50;99.90;17.50;101466.00;;;;5093965;28;20279;-81
2022/04/13 08:42:15;;;;;;;0.50;0.50;;;17.60;99.90;16.60;101467.00;;;;5097014;28;20573;-67
2022/04/13 08:44:48;;;;;;;0.50;0.50;;;17.20;99.90;16.10;101431.00;;;;5078853;28;20185;-66
2022/04/13 08:47:21;;;;;;;2.50;2.37;;;16.70;99.90;17.00;101493.00;;;;5105658;28;20526;-66
2022/04/13 08:49:50;;;;;;;0.43;0.43;;;16.80;99.90;15.60;101491.00;;;;5086882;28;20186;-69
2022/04/13 08:52:35;;;;;;;2.30;2.17;;;16.30;99.90;15.10;101511.00;;;;5093362;28;20197;-63
2022/04/13 08:55:07;;;;;;;4.93;4.53;;;15.70;99.90;15.50;101480.00;;;;5092120;28;20178;-64
2022/04/13 08:57:47;;;;;;;7.97;3.43;;;15.60;99.90;14.90;101514.00;;;;5093312;28;20166;-65
2022/04/13 09:00:17;;;;;;;0.40;0.40;;;15.50;99.90;15.70;101525.00;;;;5093910;28;20190;-66
2022/04/13 09:03:11;;;;;;;4.70;3.53;;;15.70;99.90;15.50;101525.00;;;;5093465;28;20665;-64
2022/04/13 09:05:43;;;;;;;0.40;0.40;;;15.70;99.90;15.40;101475.00;;;;5107895;28;20276;-64
2022/04/13 09:08:23;;;;;;;0.40;0.40;;;15.70;99.90;15.00;101524.00;;;;5095104;28;20177;-64
2022/04/13 09:11:05;;;;;;;0.40;0.40;;;15.70;99.90;15.30;101534.00;;;;5109671;28;20645;-64
2022/04/13 09:13:47;;;;;;;0.60;0.60;;;15.60;99.90;15.80;101529.00;;;;5094454;28;20646;-64
2022/04/13 09:16:14;;;;;;;4.47;4.20;;;15.80;99.90;15.40;101540.00;;;;5093905;28;20177;-64
2022/04/13 09:18:49;;;;;;;0.80;0.80;;;15.90;99.90;16.40;101540.00;;;;5097948;28;20218;-64
2022/04/13 09:21:20;;;;;;;0.40;0.40;;;16.20;99.90;16.00;101494.00;;;;5076139;28;20281;-63
2022/04/13 09:23:55;;;;;;;14.90;4.17;;;16.30;99.90;15.00;101495.00;;;;5094206;28;20174;-63
2022/04/13 09:26:30;;;;;;;1.53;1.43;;;15.90;99.90;15.50;101535.00;;;;5093264;28;20157;-70
2022/04/13 09:29:04;;;;;;;2.57;1.80;;;15.70;99.90;15.10;101539.00;;;;5092289;28;20210;-65
2022/04/13 09:31:38;;;;;;;3.73;3.43;;;15.80;99.90;15.10;101541.00;;;;5076459;28;20554;-67
2022/04/13 09:34:14;;;;;;;2.77;2.63;;;15.60;99.90;15.90;101534.00;;;;5076192;28;20277;-71
2022/04/13 09:36:41;;;;;;;5.60;5.03;;;16.00;99.90;15.20;101501.00;;;;5079986;28;20517;-66
2022/04/13 09:39:10;;;;;;;0.50;0.50;;;15.70;99.90;15.70;101538.00;;;;5094234;28;20189;-64
2022/04/13 09:41:47;;;;;;;6.23;5.63;;;15.80;99.90;15.00;101538.00;;;;5085444;28;20211;-77
2022/04/13 09:44:18;;;;;;;1.00;1.00;;;15.50;99.90;15.00;101495.00;;;;5075774;28;20193;-64
2022/04/13 09:46:49;;;;;;;4.93;3.50;;;15.60;99.90;15.70;101546.00;;;;5092815;28;20277;-73
2022/04/13 09:49:22;;;;;;;1.67;1.57;;;15.70;99.90;16.50;101528.00;;;;5082394;28;20221;-74
2022/04/13 09:51:53;;;;;;;1.87;1.77;;;16.20;99.90;15.80;101525.00;;;;5075330;28;20203;-73
2022/04/13 09:54:24;;;;;;;3.50;1.93;;;16.30;99.90;15.40;101515.00;;;;5106037;28;20200;-77
2022/04/13 09:56:55;;;;;;;1.20;1.10;;;15.90;99.90;15.80;101540.00;;;;5095914;28;20217;-77
2022/04/13 09:59:34;;;;;;;2.60;2.50;;;15.90;99.90;15.70;101494.00;;;;5100611;28;20194;-76
2022/04/13 10:02:00;;;;;;;3.60;3.13;;;15.90;99.90;15.80;101550.00;;;;5109394;28;20202;-75
2022/04/13 10:04:31;;;;;;;1.27;1.20;;;16.10;99.90;15.10;101549.00;;;;5112577;28;20321;-76
2022/04/13 10:07:17;;;;;;;5.80;4.00;;;15.80;99.90;15.40;101561.00;;;;5113912;28;20169;-76
2022/04/13 10:09:43;;;;;;;6.23;4.03;;;15.90;99.90;14.80;101574.00;;;;5113929;28;20177;-76
2022/04/13 10:12:10;;;;;;;5.40;3.67;;;15.40;99.90;15.00;101576.00;;;;5112655;28;20232;-75
2022/04/13 10:14:36;;;;;;;1.77;1.67;;;15.40;99.90;15.20;101577.00;;;;5094897;28;20280;-74
2022/04/13 10:17:22;;;;;;;1.07;1.07;;;15.40;99.90;15.60;101574.00;;;;5095706;28;20589;-74
2022/04/13 10:19:54;;;;;;;2.17;2.07;;;15.70;99.90;15.90;101542.00;;;;5097961;28;20275;-74
2022/04/13 10:33:13;;;;;;;1.40;1.30;;;15.10;99.90;14.40;101606.00;;;;5112763;27;1340081;-74
2022/04/13 10:35:45;;;;;;;1.53;1.50;;;15.00;99.90;14.60;101612.00;;;;5130156;28;20184;-73
2022/04/13 10:38:12;;;;;;;6.33;1.80;;;15.00;99.90;15.10;101586.00;;;;5131564;27;20172;-74
2022/04/13 10:40:45;;;;;;;4.63;4.20;;;15.30;99.90;15.00;101585.00;;;;5130233;28;20194;-73
2022/04/13 10:43:12;;;;;;;0.80;0.80;;;15.30;99.90;14.70;101612.00;;;;5130216;28;20181;-73
2022/04/13 10:45:46;;;;;;;0.40;0.40;;;15.20;99.90;15.10;101613.00;;;;5127445;27;20667;-74
2022/04/13 10:48:35;;;;;;;0.67;0.67;;;15.20;99.90;15.60;101604.00;;;;5127277;28;20179;-74
2022/04/13 10:51:26;;;;;;;2.70;2.43;;;15.50;99.90;15.50;101619.00;;;;5117009;28;20711;-74
2022/04/13 10:54:08;;;;;;;1.10;1.10;;;15.70;99.90;15.40;101581.00;;;;5129127;28;20283;-74
2022/04/13 10:56:45;;;;;;;1.07;1.07;;;15.50;99.90;15.20;101608.00;;;;5130534;28;20180;-75
2022/04/13 10:59:32;;;;;;;3.83;3.43;;;15.50;99.90;15.20;101607.00;;;;5130172;28;20183;-74
2022/04/13 11:02:14;;;;;;;2.87;2.67;;;15.40;99.90;15.40;101576.00;;;;5129342;28;20184;-74
2022/04/13 11:04:47;;;;;;;0.93;0.93;;;15.50;99.90;15.00;101590.00;;;;5129413;28;20166;-75
2022/04/13 11:07:20;;;;;;;0.50;0.50;;;15.40;99.90;15.20;101605.00;;;;5112889;28;20187;-75
2022/04/13 11:09:51;;;;;;;1.03;1.03;;;15.50;99.90;14.90;101591.00;;;;5129860;28;20183;-74
2022/04/13 11:12:27;;;;;;;2.43;2.13;;;15.30;99.90;15.20;101597.00;;;;5129515;28;20568;-74
2022/04/13 11:15:03;;;;;;;3.93;3.63;;;15.30;99.90;15.40;101602.00;;;;5111447;28;20183;-75